createdAt,value
2022-11-12T00:01:23.147Z,3.47
2022-11-12T00:03:44.002Z,3.30
2022-11-12T00:06:05.340Z,3.30
2022-11-12T00:08:26.477Z,3.17
2022-11-12T00:10:47.726Z,3.27
2022-11-12T00:13:08.875Z,3.03
2022-11-12T00:15:29.732Z,3.37
2022-11-12T00:17:50.635Z,2.70
2022-11-12T00:20:12.178Z,2.90
2022-11-12T00:22:33.013Z,2.90
2022-11-12T00:24:53.650Z,3.10
2022-11-12T00:27:14.661Z,3.00
2022-11-12T00:29:35.664Z,2.93
2022-11-12T00:31:56.142Z,3.10
2022-11-12T00:34:34.476Z,3.05
2022-11-12T00:36:55.273Z,3.17
2022-11-12T00:39:16.375Z,2.70
2022-11-12T00:41:37.013Z,2.57
2022-11-12T00:43:57.865Z,3.50
2022-11-12T00:46:18.769Z,3.00
2022-11-12T00:48:39.682Z,2.43
2022-11-12T00:51:02.355Z,2.78
2022-11-12T00:53:23.321Z,2.73
2022-11-12T00:55:44.343Z,2.92
2022-11-12T00:58:05.310Z,2.90
2022-11-12T01:00:26.607Z,3.85
2022-11-12T01:02:50.968Z,2.70
2022-11-12T01:05:12.154Z,2.37
2022-11-12T01:07:33.174Z,2.17
2022-11-12T01:09:59.819Z,2.70
2022-11-12T01:12:20.879Z,2.70
2022-11-12T01:14:42.028Z,2.93
2022-11-12T01:17:02.878Z,2.60
2022-11-12T01:19:23.633Z,2.87
2022-11-12T01:21:44.818Z,3.17
2022-11-12T01:24:06.218Z,2.60
2022-11-12T01:26:30.737Z,3.33
2022-11-12T01:28:51.911Z,3.20
2022-11-12T01:31:25.307Z,2.97
2022-11-12T01:33:47.927Z,3.47
2022-11-12T01:36:09.204Z,2.97
2022-11-12T01:38:33.329Z,3.20
2022-11-12T01:40:55.356Z,2.93
2022-11-12T01:43:15.923Z,3.47
2022-11-12T01:45:37.741Z,3.47
2022-11-12T01:47:58.909Z,3.70
2022-11-12T01:50:33.527Z,4.60
2022-11-12T01:52:59.604Z,4.30
2022-11-12T01:55:47.831Z,4.63
2022-11-12T01:58:10.544Z,4.27
2022-11-12T02:00:31.609Z,3.77
2022-11-12T02:02:57.875Z,4.40
2022-11-12T02:05:20.555Z,3.97
2022-11-12T02:07:43.955Z,4.33
2022-11-12T02:10:07.919Z,5.57
2022-11-12T02:12:48.618Z,5.17
2022-11-12T02:15:09.515Z,4.20
2022-11-12T02:17:30.416Z,5.45
2022-11-12T02:19:52.641Z,4.77
2022-11-12T02:22:13.481Z,4.43
2022-11-12T02:24:35.362Z,4.00
2022-11-12T02:26:56.267Z,4.43
2022-11-12T02:29:17.332Z,3.97
2022-11-12T02:31:38.180Z,4.97
2022-11-12T02:33:59.112Z,4.13
2022-11-12T02:36:20.347Z,4.80
2022-11-12T02:38:41.008Z,4.47
2022-11-12T02:41:01.889Z,4.50
2022-11-12T02:43:22.617Z,5.13
2022-11-12T02:45:43.168Z,5.00
2022-11-12T02:48:04.115Z,5.27
2022-11-12T02:50:24.987Z,5.68
2022-11-12T02:52:46.169Z,4.10
2022-11-12T02:55:08.719Z,4.77
2022-11-12T02:57:30.389Z,4.35
2022-11-12T02:59:51.156Z,4.10
2022-11-12T03:02:11.948Z,4.50
2022-11-12T03:04:32.715Z,3.37
2022-11-12T03:06:53.696Z,3.57
2022-11-12T03:09:14.664Z,3.90
2022-11-12T03:11:35.280Z,3.50
2022-11-12T03:13:56.100Z,4.57
2022-11-12T03:16:17.154Z,4.33
2022-11-12T03:18:38.369Z,3.97
2022-11-12T03:20:58.916Z,4.43
2022-11-12T03:23:20.440Z,5.13
2022-11-12T03:25:41.297Z,5.10
2022-11-12T03:28:05.157Z,5.47
2022-11-12T03:30:30.202Z,4.73
2022-11-12T03:32:50.779Z,4.80
2022-11-12T03:35:11.515Z,5.37
2022-11-12T03:37:32.477Z,5.90
2022-11-12T03:39:53.366Z,4.60
2022-11-12T03:42:14.223Z,4.50
2022-11-12T03:44:35.614Z,4.60
2022-11-12T03:46:56.662Z,5.73
2022-11-12T03:49:17.586Z,4.17
2022-11-12T03:51:38.119Z,4.47
2022-11-12T03:53:58.593Z,4.23
2022-11-12T03:56:19.454Z,7.53
2022-11-12T03:58:40.430Z,4.90
2022-11-12T04:01:01.408Z,5.53
2022-11-12T04:03:22.447Z,4.90
2022-11-12T04:06:01.952Z,3.93
2022-11-12T04:08:36.228Z,4.13
2022-11-12T04:10:57.337Z,5.10
2022-11-12T04:13:27.733Z,4.33
2022-11-12T04:16:08.318Z,3.70
2022-11-12T04:18:47.523Z,3.00
2022-11-12T04:21:27.671Z,3.70
2022-11-12T04:23:48.666Z,5.00
2022-11-12T04:26:24.518Z,4.97
2022-11-12T04:29:05.245Z,3.63
2022-11-12T04:31:26.196Z,3.92
2022-11-12T04:33:46.800Z,3.77
2022-11-12T04:36:07.736Z,3.80
2022-11-12T04:38:28.766Z,3.50
2022-11-12T04:41:08.478Z,4.15
2022-11-12T04:43:48.236Z,3.70
2022-11-12T04:46:09.930Z,4.18
2022-11-12T04:48:35.912Z,3.23
2022-11-12T04:51:02.520Z,3.50
2022-11-12T04:53:23.190Z,4.00
2022-11-12T04:55:43.990Z,4.33
2022-11-12T04:58:04.745Z,4.60
2022-11-12T05:00:26.133Z,3.40
2022-11-12T05:02:50.011Z,3.83
2022-11-12T05:05:10.843Z,3.93
2022-11-12T05:07:33.090Z,4.10
2022-11-12T05:09:53.879Z,5.43
2022-11-12T05:12:14.787Z,3.97
2022-11-12T05:14:35.740Z,3.97
2022-11-12T05:16:56.492Z,5.40
2022-11-12T05:19:18.185Z,5.20
2022-11-12T05:21:58.424Z,6.17
2022-11-12T05:24:40.553Z,5.10
2022-11-12T05:27:00.687Z,4.60
2022-11-12T05:29:21.794Z,5.80
2022-11-12T05:31:42.776Z,6.60
2022-11-12T05:34:03.435Z,5.67
2022-11-12T05:36:24.455Z,6.83
2022-11-12T05:38:45.419Z,6.87
2022-11-12T05:41:06.320Z,5.63
2022-11-12T05:43:27.281Z,7.07
2022-11-12T05:45:48.083Z,5.80
2022-11-12T05:48:08.807Z,5.97
2022-11-12T05:50:34.998Z,5.33
2022-11-12T05:53:01.244Z,4.63
2022-11-12T05:55:21.915Z,5.17
2022-11-12T05:57:42.595Z,4.70
2022-11-12T06:00:04.096Z,4.20
2022-11-12T06:02:25.226Z,3.77
2022-11-12T06:04:48.169Z,4.03
2022-11-12T06:07:09.111Z,3.10
2022-11-12T06:09:30.000Z,4.13
2022-11-12T06:11:50.836Z,3.23
2022-11-12T06:14:11.937Z,2.83
2022-11-12T06:16:38.761Z,3.53
2022-11-12T06:18:59.735Z,2.87
2022-11-12T06:21:20.248Z,3.13
2022-11-12T06:23:40.929Z,3.00
2022-11-12T06:26:29.782Z,3.10
2022-11-12T06:28:53.024Z,3.13
2022-11-12T06:31:13.917Z,3.27
2022-11-12T06:33:34.958Z,2.57
2022-11-12T06:36:03.510Z,3.70
2022-11-12T06:38:25.093Z,4.03
2022-11-12T06:40:47.260Z,4.53
2022-11-12T06:43:08.131Z,4.97
2022-11-12T06:45:29.123Z,4.23
2022-11-12T06:47:49.731Z,4.60
2022-11-12T06:50:10.816Z,3.70
2022-11-12T06:52:32.734Z,5.13
2022-11-12T06:54:53.628Z,3.70
2022-11-12T06:57:14.448Z,4.50
2022-11-12T06:59:35.573Z,6.30
2022-11-12T07:01:56.163Z,7.00
2022-11-12T07:04:17.058Z,9.02
2022-11-12T07:06:38.323Z,7.40
2022-11-12T07:08:59.511Z,7.07
2022-11-12T07:11:20.462Z,6.73
2022-11-12T07:13:48.050Z,5.10
2022-11-12T07:16:10.846Z,6.30
2022-11-12T07:18:32.314Z,6.60
2022-11-12T07:20:58.524Z,5.50
2022-11-12T07:23:19.390Z,4.40
2022-11-12T07:25:40.393Z,4.50
2022-11-12T07:28:01.217Z,4.43
2022-11-12T07:30:22.262Z,4.03
2022-11-12T07:32:47.139Z,3.90
2022-11-12T07:35:10.988Z,4.13
2022-11-12T07:37:33.785Z,8.57
2022-11-12T07:39:54.544Z,7.10
2022-11-12T07:42:15.457Z,7.70
2022-11-12T07:44:38.097Z,8.00
2022-11-12T07:46:59.969Z,10.20
2022-11-12T07:49:20.969Z,8.27
2022-11-12T07:51:41.917Z,9.80
2022-11-12T07:54:02.687Z,12.63
2022-11-12T07:56:26.132Z,12.20
2022-11-12T07:58:50.508Z,11.47
2022-11-12T08:01:34.493Z,11.00
2022-11-12T08:04:46.628Z,11.53
2022-11-12T08:07:07.425Z,12.03
2022-11-12T08:09:28.119Z,12.87
2022-11-12T08:11:49.109Z,13.33
2022-11-12T08:14:09.786Z,11.97
2022-11-12T08:16:30.284Z,13.80
2022-11-12T08:18:51.189Z,18.20
2022-11-12T08:21:14.182Z,22.70
2022-11-12T08:23:35.303Z,31.60
2022-11-12T08:26:04.826Z,34.00
2022-11-12T08:28:26.419Z,31.67
2022-11-12T08:30:47.493Z,42.87
2022-11-12T08:33:08.464Z,38.70
2022-11-12T08:35:31.264Z,37.70
2022-11-12T08:37:52.139Z,29.77
2022-11-12T08:40:13.167Z,31.80
2022-11-12T08:42:34.141Z,29.52
2022-11-12T08:44:55.036Z,25.53
2022-11-12T08:47:16.065Z,22.50
2022-11-12T08:49:46.795Z,22.33
2022-11-12T08:52:09.003Z,19.13
2022-11-12T08:54:30.440Z,18.27
2022-11-12T08:57:07.268Z,15.93
2022-11-12T08:59:28.135Z,16.00
2022-11-12T09:01:50.196Z,13.30
2022-11-12T09:04:11.101Z,14.33
2022-11-12T09:06:32.223Z,12.27
2022-11-12T09:08:53.364Z,12.33
2022-11-12T09:11:14.201Z,12.47
2022-11-12T09:13:35.070Z,12.03
2022-11-12T09:16:01.573Z,11.53
2022-11-12T09:18:22.162Z,10.70
2022-11-12T09:20:43.261Z,10.17
2022-11-12T09:23:12.043Z,14.83
2022-11-12T09:25:33.817Z,13.80
2022-11-12T09:27:55.073Z,16.73
2022-11-12T09:30:16.268Z,15.53
2022-11-12T09:32:37.333Z,12.80
2022-11-12T09:35:02.365Z,13.87
2022-11-12T09:37:23.153Z,12.37
2022-11-12T09:39:43.965Z,12.77
2022-11-12T09:42:11.754Z,12.83
2022-11-12T09:44:36.679Z,11.20
2022-11-12T09:47:04.744Z,11.10
2022-11-12T09:49:32.681Z,10.00
2022-11-12T09:51:55.383Z,11.53
2022-11-12T09:54:34.839Z,10.00
2022-11-12T09:56:55.788Z,10.33
2022-11-12T09:59:17.403Z,10.40
2022-11-12T10:01:44.213Z,11.47
2022-11-12T10:04:14.116Z,11.40
2022-11-12T10:06:45.823Z,10.47
2022-11-12T10:09:24.143Z,10.77
2022-11-12T10:12:31.776Z,10.07
2022-11-12T10:15:35.247Z,9.30
2022-11-12T10:18:02.082Z,8.80
2022-11-12T10:20:43.364Z,8.90
2022-11-12T10:23:15.563Z,7.73
2022-11-12T10:25:37.552Z,7.10
2022-11-12T10:27:58.123Z,7.27
2022-11-12T10:30:22.009Z,7.90
2022-11-12T10:32:45.178Z,7.57
2022-11-12T10:35:09.632Z,7.00
2022-11-12T10:37:41.492Z,5.97
2022-11-12T10:40:28.085Z,8.90
2022-11-12T10:42:57.705Z,10.37
2022-11-12T10:45:23.389Z,7.43
2022-11-12T10:47:47.022Z,8.43
2022-11-12T10:50:35.151Z,8.07
2022-11-12T10:53:31.720Z,7.40
2022-11-12T10:56:01.699Z,6.03
2022-11-12T10:58:22.409Z,5.70
2022-11-12T11:00:56.648Z,6.07
2022-11-12T11:03:57.055Z,5.50
2022-11-12T11:06:23.684Z,6.20
2022-11-12T11:09:08.729Z,7.30
2022-11-12T11:11:31.170Z,8.70
2022-11-12T11:13:57.467Z,11.57
2022-11-12T11:16:21.293Z,8.37
2022-11-12T11:18:48.011Z,10.27
2022-11-12T11:21:46.853Z,7.50
2022-11-12T11:24:14.014Z,9.63
2022-11-12T11:27:30.588Z,8.20
2022-11-12T11:30:15.527Z,7.33
2022-11-12T11:32:58.407Z,8.53
2022-11-12T11:35:36.877Z,8.60
2022-11-12T11:38:36.398Z,8.23
2022-11-12T11:41:15.462Z,7.13
2022-11-12T11:43:45.141Z,9.33
2022-11-12T11:46:26.418Z,12.77
2022-11-12T11:49:49.430Z,8.70
2022-11-12T11:52:47.862Z,9.23
2022-11-12T11:59:32.453Z,9.73
2022-11-12T12:02:23.944Z,9.97
2022-11-12T12:04:47.297Z,9.20
2022-11-12T12:08:11.657Z,7.93
2022-11-12T12:13:56.286Z,8.37
2022-11-12T12:16:25.924Z,9.50
2022-11-12T12:19:12.129Z,7.00
2022-11-12T12:21:36.357Z,7.60
2022-11-12T12:24:15.176Z,6.80
2022-11-12T12:26:54.008Z,6.33
2022-11-12T12:29:26.433Z,6.30
2022-11-12T12:32:11.755Z,5.33
2022-11-12T12:34:34.796Z,5.27
2022-11-12T12:37:04.276Z,6.50
2022-11-12T12:39:49.185Z,5.50
2022-11-12T12:42:18.437Z,4.83
2022-11-12T12:45:05.894Z,5.07
2022-11-12T12:47:30.821Z,7.00
2022-11-12T12:49:53.088Z,5.97
2022-11-12T12:52:15.351Z,5.30
2022-11-12T12:54:36.124Z,5.20
2022-11-12T12:56:57.077Z,4.47
2022-11-12T12:59:23.877Z,4.38
2022-11-12T13:01:44.697Z,3.77
2022-11-12T13:04:08.875Z,3.80
2022-11-12T13:06:53.860Z,3.60
2022-11-12T13:09:14.984Z,3.30
2022-11-12T13:12:00.239Z,3.47
2022-11-12T13:15:11.716Z,5.73
2022-11-12T13:17:50.072Z,6.10
2022-11-12T13:20:10.597Z,5.77
2022-11-12T13:22:49.820Z,4.50
2022-11-12T13:25:13.571Z,4.53
2022-11-12T13:27:40.890Z,5.63
2022-11-12T13:30:01.419Z,5.90
2022-11-12T13:32:32.339Z,4.60
2022-11-12T13:35:13.324Z,4.00
2022-11-12T13:37:34.273Z,3.60
2022-11-12T13:40:03.974Z,4.30
2022-11-12T13:42:43.349Z,4.60
2022-11-12T13:45:05.964Z,5.40
2022-11-12T13:47:29.480Z,8.33
2022-11-12T13:49:50.847Z,5.70
2022-11-12T13:52:15.470Z,6.60
2022-11-12T13:55:31.489Z,6.43
2022-11-12T13:57:56.860Z,5.23
2022-11-12T14:00:22.600Z,5.27
2022-11-12T14:02:46.245Z,4.90
2022-11-12T14:05:23.522Z,5.10
2022-11-12T14:08:00.530Z,7.63
2022-11-12T14:10:43.417Z,7.33
2022-11-12T14:13:15.267Z,6.17
2022-11-12T14:15:56.620Z,6.40
2022-11-12T14:19:03.262Z,7.23
2022-11-12T14:21:24.498Z,5.23
2022-11-12T14:23:47.863Z,8.40
2022-11-12T14:26:11.467Z,7.80
2022-11-12T14:28:37.124Z,6.20
2022-11-12T14:31:00.155Z,6.83
2022-11-12T14:33:23.265Z,9.52
2022-11-12T14:35:44.077Z,7.30
2022-11-12T14:38:05.346Z,8.87
2022-11-12T14:40:29.011Z,7.00
2022-11-12T14:42:50.475Z,7.07
2022-11-12T14:46:03.643Z,7.55
2022-11-12T14:48:24.626Z,7.70
2022-11-12T14:50:51.859Z,7.13
2022-11-12T14:53:25.212Z,6.70
2022-11-12T14:55:51.838Z,5.97
2022-11-12T14:58:17.875Z,6.68
2022-11-12T15:00:42.926Z,5.03
2022-11-12T15:03:04.920Z,4.70
2022-11-12T15:05:27.520Z,5.97
2022-11-12T15:08:01.399Z,5.27
2022-11-12T15:10:36.579Z,8.70
2022-11-12T15:13:08.479Z,9.53
2022-11-12T15:15:29.727Z,11.10
2022-11-12T15:18:01.097Z,8.13
2022-11-12T15:20:21.842Z,8.40
2022-11-12T15:22:53.257Z,9.18
2022-11-12T15:25:41.196Z,8.20
2022-11-12T15:28:25.152Z,9.35
2022-11-12T15:31:01.054Z,7.53
2022-11-12T15:33:22.938Z,8.20
2022-11-12T15:35:56.452Z,7.63
2022-11-12T15:38:31.723Z,7.55
2022-11-12T15:40:59.903Z,6.90
2022-11-12T15:43:24.476Z,7.00
2022-11-12T15:45:52.141Z,6.10
2022-11-12T15:48:12.906Z,6.00
2022-11-12T15:50:33.782Z,6.10
2022-11-12T15:52:54.653Z,5.00
2022-11-12T15:55:16.110Z,4.90
2022-11-12T15:57:44.146Z,4.70
2022-11-12T16:00:10.489Z,4.20
2022-11-12T16:02:31.977Z,5.97
2022-11-12T16:04:52.980Z,5.40
2022-11-12T16:07:13.793Z,6.67
2022-11-12T16:09:34.811Z,7.17
2022-11-12T16:11:57.480Z,8.77
2022-11-12T16:14:21.999Z,9.93
2022-11-12T16:16:45.974Z,11.43
2022-11-12T16:19:14.766Z,10.80
2022-11-12T16:21:35.418Z,18.80
2022-11-12T16:23:57.459Z,15.00
2022-11-12T16:26:25.098Z,15.63
2022-11-12T16:28:46.043Z,12.40
2022-11-12T16:31:07.064Z,13.67
2022-11-12T16:33:29.329Z,19.63
2022-11-12T16:35:50.543Z,16.77
2022-11-12T16:38:15.973Z,15.03
2022-11-12T16:40:36.879Z,14.52
2022-11-12T16:42:58.202Z,14.70
2022-11-12T16:45:20.939Z,17.53
2022-11-12T16:47:56.017Z,18.07
2022-11-12T16:50:19.010Z,21.30
2022-11-12T16:52:39.932Z,25.27
2022-11-12T16:55:04.586Z,23.47
2022-11-12T16:57:25.667Z,23.30
2022-11-12T16:59:46.416Z,24.53
2022-11-12T17:02:31.128Z,22.17
2022-11-12T17:04:51.883Z,22.67
2022-11-12T17:07:12.819Z,22.07
2022-11-12T17:09:33.949Z,21.00
2022-11-12T17:11:55.018Z,18.80
2022-11-12T17:14:21.185Z,18.40
2022-11-12T17:16:45.325Z,17.53
2022-11-12T17:19:14.398Z,14.53
2022-11-12T17:21:36.057Z,16.00
2022-11-12T17:23:58.018Z,13.97
2022-11-12T17:26:20.417Z,14.13
2022-11-12T17:28:41.355Z,12.87
2022-11-12T17:31:13.636Z,12.30
2022-11-12T17:33:48.667Z,11.73
2022-11-12T17:36:12.498Z,14.73
2022-11-12T17:39:27.270Z,14.83
2022-11-12T17:41:47.964Z,12.97
2022-11-12T17:44:08.452Z,13.27
2022-11-12T17:46:29.392Z,12.07
2022-11-12T17:48:50.414Z,12.73
2022-11-12T17:51:14.612Z,12.13
2022-11-12T17:53:42.954Z,11.80
2022-11-12T17:56:04.488Z,10.93
2022-11-12T17:58:25.921Z,12.97
2022-11-12T18:00:46.618Z,10.20
2022-11-12T18:03:07.395Z,9.93
2022-11-12T18:05:28.402Z,9.90
2022-11-12T18:07:48.997Z,9.47
2022-11-12T18:10:09.861Z,7.10
2022-11-12T18:12:30.442Z,7.03
2022-11-12T18:14:51.236Z,8.80
2022-11-12T18:17:14.527Z,6.73
2022-11-12T18:19:36.534Z,6.93
2022-11-12T18:21:57.469Z,6.07
2022-11-12T18:24:18.512Z,7.50
2022-11-12T18:26:39.641Z,6.93
2022-11-12T18:29:00.878Z,6.00
2022-11-12T18:31:23.158Z,5.83
2022-11-12T18:33:44.271Z,5.97
2022-11-12T18:36:11.649Z,5.50
2022-11-12T18:38:36.868Z,5.83
2022-11-12T18:41:17.486Z,6.67
2022-11-12T18:43:39.142Z,6.23
2022-11-12T18:46:00.479Z,6.57
2022-11-12T18:48:21.175Z,7.57
2022-11-12T18:50:42.999Z,7.83
2022-11-12T18:53:03.891Z,7.17
2022-11-12T18:55:24.903Z,7.60
2022-11-12T18:58:49.386Z,7.83
2022-11-12T19:01:20.634Z,8.27
2022-11-12T19:03:42.576Z,7.70
2022-11-12T19:07:09.629Z,8.30
2022-11-12T19:09:30.783Z,8.20
2022-11-12T19:11:51.775Z,8.73
2022-11-12T19:14:12.659Z,8.83
2022-11-12T19:16:39.675Z,7.50
2022-11-12T19:19:00.428Z,7.40
2022-11-12T19:21:23.824Z,7.13
2022-11-12T19:23:46.333Z,7.07
2022-11-12T19:26:13.742Z,7.47
2022-11-12T19:28:35.377Z,8.07
2022-11-12T19:30:56.612Z,9.93
2022-11-12T19:33:17.152Z,10.80
2022-11-12T19:35:41.198Z,15.40
2022-11-12T19:38:02.140Z,13.40
2022-11-12T19:40:23.024Z,15.70
2022-11-12T19:42:46.981Z,16.03
2022-11-12T19:45:08.269Z,14.88
2022-11-12T19:47:29.431Z,14.07
2022-11-12T19:49:55.521Z,13.70
2022-11-12T19:52:16.475Z,13.67
2022-11-12T19:54:37.496Z,16.13
2022-11-12T19:56:59.563Z,16.60
2022-11-12T19:59:20.446Z,13.57
2022-11-12T20:01:48.288Z,16.48
2022-11-12T20:04:12.603Z,17.60
2022-11-12T20:06:43.524Z,22.20
2022-11-12T20:09:05.633Z,24.33
2022-11-12T20:11:35.662Z,39.17
2022-11-12T20:13:57.868Z,38.30
2022-11-12T20:16:24.962Z,34.20
2022-11-12T20:18:50.793Z,30.63
2022-11-12T20:21:12.209Z,30.83
2022-11-12T20:23:34.289Z,33.40
2022-11-12T20:26:04.010Z,34.83
2022-11-12T20:28:24.897Z,37.60
2022-11-12T20:30:46.036Z,29.23
2022-11-12T20:33:06.994Z,33.93
2022-11-12T20:36:19.890Z,33.65
2022-11-12T20:38:43.355Z,29.63
2022-11-12T20:41:06.356Z,30.40
2022-11-12T20:43:29.237Z,31.63
2022-11-12T20:45:52.187Z,25.70
2022-11-12T20:48:12.679Z,28.37
2022-11-12T20:50:33.481Z,26.57
2022-11-12T20:52:54.554Z,25.07
2022-11-12T20:55:15.116Z,28.33
2022-11-12T20:57:35.823Z,23.30
2022-11-12T20:59:56.715Z,21.30
2022-11-12T21:02:18.231Z,24.73
2022-11-12T21:04:39.203Z,23.40
2022-11-12T21:07:05.020Z,23.67
2022-11-12T21:09:54.521Z,21.80
2022-11-12T21:12:15.751Z,20.30
2022-11-12T21:14:39.891Z,20.87
2022-11-12T21:17:10.314Z,18.83
2022-11-12T21:19:32.475Z,23.70
2022-11-12T21:21:53.512Z,23.08
2022-11-12T21:24:14.629Z,24.63
2022-11-12T21:26:44.426Z,31.30
2022-11-12T21:29:05.350Z,26.87
2022-11-12T21:31:28.355Z,34.38
2022-11-12T21:33:53.922Z,32.60
2022-11-12T21:36:16.525Z,29.70
2022-11-12T21:38:37.843Z,24.00
2022-11-12T21:41:07.252Z,24.55
2022-11-12T21:43:27.921Z,24.10
2022-11-12T21:45:48.895Z,21.30
2022-11-12T21:48:09.644Z,19.80
2022-11-12T21:50:30.586Z,17.10
2022-11-12T21:52:51.297Z,19.75
2022-11-12T21:55:12.262Z,18.17
2022-11-12T21:57:33.194Z,18.23
2022-11-12T22:00:00.205Z,19.80
2022-11-12T22:02:29.496Z,28.55
2022-11-12T22:04:50.258Z,28.73
2022-11-12T22:07:11.297Z,24.80
2022-11-12T22:09:33.453Z,21.77
2022-11-12T22:11:54.437Z,22.57
2022-11-12T22:14:17.511Z,28.27
2022-11-12T22:16:38.515Z,30.23
2022-11-12T22:19:00.298Z,30.83
2022-11-12T22:21:23.558Z,29.90
2022-11-12T22:23:44.852Z,28.83
2022-11-12T22:26:08.030Z,26.23
2022-11-12T22:28:29.496Z,19.70
2022-11-12T22:30:50.898Z,20.87
2022-11-12T22:33:11.892Z,22.53
2022-11-12T22:35:33.616Z,27.90
2022-11-12T22:37:54.794Z,24.70
2022-11-12T22:40:15.760Z,25.88
2022-11-12T22:42:44.594Z,22.50
2022-11-12T22:45:06.124Z,21.47
2022-11-12T22:47:27.228Z,23.10
2022-11-12T22:49:50.925Z,19.23
2022-11-12T22:52:11.902Z,21.70
2022-11-12T22:54:32.969Z,19.20
2022-11-12T22:56:53.869Z,17.23
2022-11-12T22:59:14.767Z,16.70
2022-11-12T23:01:36.276Z,18.00
2022-11-12T23:03:59.528Z,15.98
2022-11-12T23:06:20.343Z,18.00
2022-11-12T23:08:41.978Z,15.87
2022-11-12T23:11:05.497Z,12.73
2022-11-12T23:13:31.472Z,14.90
2022-11-12T23:15:52.164Z,17.52
2022-11-12T23:18:13.242Z,16.27
2022-11-12T23:20:33.687Z,15.80
2022-11-12T23:22:54.605Z,17.47
2022-11-12T23:25:15.319Z,16.00
2022-11-12T23:27:36.361Z,17.07
2022-11-12T23:29:57.293Z,17.43
2022-11-12T23:32:18.242Z,15.97
2022-11-12T23:34:39.328Z,16.43
2022-11-12T23:37:00.122Z,19.80
2022-11-12T23:39:21.044Z,18.53
2022-11-12T23:41:41.989Z,16.95
2022-11-12T23:44:02.995Z,17.77
2022-11-12T23:46:24.450Z,16.47
2022-11-12T23:48:45.912Z,14.23
2022-11-12T23:51:20.661Z,14.63
2022-11-12T23:53:42.134Z,19.40
2022-11-12T23:56:04.573Z,15.87
2022-11-12T23:58:25.977Z,15.50
